Mora, New Mexico
Current Conditions -  °F | °C
As of 9:53 AM on Wednesday 22 Oct 2014 (Local Time) from KLVS Reporting Station
Clear Clear  
Wind Chill: 56°   Ceiling: Unl
Heat Index: 56°   Visibility: 10mi
Dew Point: 44°   Wind: 0mph
Humidity: 64%   Direction: NA
Pressure: 30.22"   Gusts: NA
Location:  35.97°N, 105.33°W
Report Text: KLVS 221553Z AUTO 00000KT 10SM CLR 13/07 A3022 RMK AO2 SLP162 T01330067
Loading
Personal Weather Stations






























Interactive Weather Map
Tropical Storm Tracking
New forecast layout! Learn more

10-Day Weather Forecast

Advertisements
Track Severe Weather on mobile